Time;durP1;ratioP1;P1;durP2;ratioP2;P2;SDS_P1;SDS_P2;PMS_P1;PMS_P2;Temp;Humidity;BMP_temperature;BMP_pressure;BME280_temperature;BME280_humidity;BME280_pressure;Samples;Min_cycle;Max_cycle;Signal;HPM_P1;HPM_P2
2021/07/30 00:02:19;;;;;;;10.40;3.07;;;15.30;72.30;;;;;;5059037;28;20179;-83
2021/07/30 00:04:44;;;;;;;9.40;2.80;;;15.20;72.70;;;;;;5076629;28;20635;-82
2021/07/30 00:07:10;;;;;;;4.90;2.67;;;15.20;72.40;;;;;;5076145;28;20171;-82
2021/07/30 00:09:36;;;;;;;8.33;3.00;;;15.30;72.50;;;;;;5076062;28;20647;-81
2021/07/30 00:12:02;;;;;;;8.97;2.83;;;15.20;72.80;;;;;;5076292;28;20168;-83
2021/07/30 00:14:28;;;;;;;8.47;2.50;;;15.10;72.80;;;;;;5076251;28;20164;-82
2021/07/30 00:16:54;;;;;;;7.60;3.07;;;15.20;72.90;;;;;;5076045;28;20186;-83
2021/07/30 00:19:19;;;;;;;10.33;2.90;;;15.10;73.40;;;;;;5076018;28;20170;-82
2021/07/30 00:21:45;;;;;;;9.47;2.80;;;15.10;73.20;;;;;;5075917;28;20550;-82
2021/07/30 00:24:10;;;;;;;10.17;3.40;;;15.10;73.10;;;;;;5076088;28;20194;-83
2021/07/30 00:26:36;;;;;;;8.33;3.13;;;15.10;73.10;;;;;;5075860;28;20255;-82
2021/07/30 00:29:02;;;;;;;12.10;3.23;;;15.10;73.20;;;;;;5058396;28;20206;-79
2021/07/30 00:31:28;;;;;;;8.30;2.57;;;15.10;73.30;;;;;;5058371;28;20298;-83
2021/07/30 00:33:53;;;;;;;10.80;3.00;;;15.10;73.30;;;;;;5058675;28;20218;-83
2021/07/30 00:36:19;;;;;;;11.43;3.47;;;15.00;73.80;;;;;;5076341;28;20250;-82
2021/07/30 00:38:44;;;;;;;12.30;3.93;;;14.90;74.20;;;;;;5076363;28;20231;-82
2021/07/30 00:41:10;;;;;;;6.30;2.90;;;14.90;74.00;;;;;;5076505;28;20217;-81
2021/07/30 00:43:36;;;;;;;10.17;3.80;;;14.90;74.00;;;;;;5145804;23;20322;-85
2021/07/30 00:46:02;;;;;;;16.07;5.27;;;14.90;73.90;;;;;;5075199;28;20203;-85
2021/07/30 00:48:29;;;;;;;12.90;5.00;;;14.90;74.10;;;;;;5075302;28;20199;-84
2021/07/30 00:50:55;;;;;;;12.17;4.83;;;14.90;74.10;;;;;;5075176;28;20200;-85
2021/07/30 00:53:21;;;;;;;9.40;3.97;;;14.90;74.20;;;;;;5073787;28;20210;-85
2021/07/30 00:55:48;;;;;;;10.07;3.83;;;14.80;74.80;;;;;;5057113;28;20179;-85
2021/07/30 00:58:14;;;;;;;13.87;3.90;;;14.80;74.90;;;;;;5057207;28;20281;-85
2021/07/30 01:00:43;;;;;;;12.47;3.13;;;14.80;74.80;;;;;;5075060;28;20424;-85
2021/07/30 01:03:09;;;;;;;9.43;3.07;;;14.80;75.00;;;;;;5057031;28;20203;-85
2021/07/30 01:05:36;;;;;;;13.30;3.70;;;14.80;75.10;;;;;;5074927;28;20180;-85
2021/07/30 01:08:03;;;;;;;12.57;3.30;;;14.70;75.60;;;;;;5075152;28;20237;-85
2021/07/30 01:10:29;;;;;;;14.77;3.67;;;14.60;75.50;;;;;;5074764;28;20199;-85
2021/07/30 01:12:55;;;;;;;16.37;3.17;;;14.50;75.90;;;;;;5074811;28;20191;-85
2021/07/30 01:15:22;;;;;;;9.83;3.30;;;14.40;76.00;;;;;;5075168;28;20206;-85
2021/07/30 01:17:47;;;;;;;13.70;3.80;;;14.40;76.10;;;;;;5056787;28;20258;-84
2021/07/30 01:20:14;;;;;;;10.57;3.07;;;14.40;76.20;;;;;;5074930;28;20286;-85
2021/07/30 01:22:58;;;;;;;9.60;3.83;;;14.30;76.10;;;;;;5056618;28;20207;-84
2021/07/30 01:25:25;;;;;;;12.73;3.53;;;14.30;76.20;;;;;;5056629;28;20172;-84
2021/07/30 01:27:52;;;;;;;9.43;3.70;;;14.30;76.30;;;;;;5056542;28;20264;-85
2021/07/30 01:30:20;;;;;;;8.33;3.30;;;14.30;76.30;;;;;;5056481;28;20610;-85
2021/07/30 01:32:46;;;;;;;8.13;3.63;;;14.30;76.30;;;;;;5074464;28;20282;-85
2021/07/30 01:35:12;;;;;;;6.47;3.23;;;14.30;76.30;;;;;;5056521;28;20181;-85
2021/07/30 01:37:39;;;;;;;9.80;3.20;;;14.20;76.80;;;;;;5074319;28;20171;-85
2021/07/30 01:40:06;;;;;;;9.47;3.33;;;14.20;76.80;;;;;;5074193;28;20175;-85
2021/07/30 01:42:32;;;;;;;11.47;4.07;;;14.30;76.50;;;;;;5074045;28;20212;-85
2021/07/30 01:44:58;;;;;;;14.00;3.80;;;14.20;76.60;;;;;;5074172;28;20572;-85
2021/07/30 01:47:23;;;;;;;9.60;3.30;;;14.20;76.60;;;;;;5074088;28;20218;-85
2021/07/30 01:49:50;;;;;;;12.93;3.60;;;14.20;76.70;;;;;;5056117;28;20305;-85
2021/07/30 01:52:17;;;;;;;10.87;3.80;;;14.20;76.50;;;;;;5074357;28;20167;-85
2021/07/30 01:54:44;;;;;;;9.27;4.10;;;14.20;76.70;;;;;;5073838;28;20195;-85
2021/07/30 01:57:10;;;;;;;13.57;3.80;;;14.30;76.60;;;;;;5073398;28;20163;-85
2021/07/30 01:59:35;;;;;;;9.00;3.90;;;14.20;76.40;;;;;;5055821;28;20174;-85
2021/07/30 02:02:01;;;;;;;10.67;3.80;;;14.20;76.60;;;;;;5073806;28;20203;-85
2021/07/30 02:04:26;;;;;;;15.07;4.07;;;14.30;76.60;;;;;;5073710;28;20224;-85
2021/07/30 02:06:52;;;;;;;12.63;3.90;;;14.20;76.70;;;;;;5073742;28;20168;-85
2021/07/30 02:09:18;;;;;;;10.07;3.77;;;14.20;77.00;;;;;;5073714;28;20200;-85
2021/07/30 02:11:50;;;;;;;15.87;4.00;;;14.20;77.30;;;;;;5073623;28;20250;-84
2021/07/30 02:14:16;;;;;;;13.70;4.77;;;14.20;77.10;;;;;;5055675;28;20550;-85
2021/07/30 02:16:49;;;;;;;10.03;4.20;;;14.20;76.90;;;;;;5055671;28;20182;-85
2021/07/30 02:19:17;;;;;;;13.73;3.67;;;14.20;76.50;;;;;;5073553;28;20171;-85
2021/07/30 02:21:44;;;;;;;10.73;4.57;;;14.20;76.50;;;;;;5073504;28;20172;-85
2021/07/30 02:24:10;;;;;;;11.77;4.10;;;14.20;76.80;;;;;;5073430;28;20629;-85
2021/07/30 02:26:36;;;;;;;7.70;3.30;;;14.20;76.70;;;;;;5073543;28;20167;-85
2021/07/30 02:29:02;;;;;;;10.07;3.80;;;14.20;77.00;;;;;;5055481;28;20647;-85
2021/07/30 02:31:28;;;;;;;7.27;3.23;;;14.20;77.00;;;;;;5073371;28;20191;-85
2021/07/30 02:33:54;;;;;;;11.63;3.93;;;14.20;76.70;;;;;;5055307;28;20191;-85
2021/07/30 02:36:20;;;;;;;12.03;4.00;;;14.20;76.80;;;;;;5073344;28;20519;-85
2021/07/30 02:38:46;;;;;;;8.10;4.00;;;14.10;76.80;;;;;;5073328;28;20647;-85
2021/07/30 02:41:11;;;;;;;14.70;4.17;;;14.10;76.70;;;;;;5073352;28;20233;-85
2021/07/30 02:43:37;;;;;;;13.33;4.67;;;14.20;77.00;;;;;;5073045;28;20698;-85
2021/07/30 02:46:03;;;;;;;12.17;3.77;;;14.10;76.90;;;;;;5073244;28;20204;-85
2021/07/30 02:48:29;;;;;;;12.27;3.50;;;14.00;77.40;;;;;;5073342;28;20198;-85
2021/07/30 02:50:54;;;;;;;10.23;4.10;;;14.10;77.20;;;;;;5055253;28;20751;-85
2021/07/30 02:53:20;;;;;;;12.43;4.40;;;14.00;77.40;;;;;;5073108;28;20205;-85
2021/07/30 02:55:46;;;;;;;11.37;4.40;;;14.00;77.50;;;;;;5055228;28;20171;-85
2021/07/30 02:58:14;;;;;;;7.97;4.17;;;14.00;77.30;;;;;;5073324;28;20163;-85
2021/07/30 03:00:40;;;;;;;10.70;4.40;;;14.00;77.40;;;;;;5073148;28;20195;-85
2021/07/30 03:03:06;;;;;;;19.63;5.13;;;13.90;77.50;;;;;;5073004;28;20192;-85
2021/07/30 03:05:32;;;;;;;17.03;4.93;;;14.00;77.00;;;;;;5073130;28;20627;-85
2021/07/30 03:07:57;;;;;;;16.53;5.27;;;13.90;77.60;;;;;;5073014;28;20168;-85
2021/07/30 03:10:23;;;;;;;14.00;4.07;;;14.00;77.60;;;;;;5058581;28;20199;-85
2021/07/30 03:12:49;;;;;;;8.13;4.17;;;13.90;77.80;;;;;;5077073;28;20187;-85
2021/07/30 03:15:14;;;;;;;14.80;4.30;;;14.00;77.60;;;;;;5077037;28;20167;-85
2021/07/30 03:17:40;;;;;;;9.63;4.03;;;14.00;77.70;;;;;;5059074;28;20175;-85
2021/07/30 03:20:07;;;;;;;18.37;5.23;;;14.00;77.40;;;;;;5076945;28;20171;-85
2021/07/30 03:22:33;;;;;;;13.00;5.10;;;14.00;77.40;;;;;;5058913;28;20187;-85
2021/07/30 03:24:58;;;;;;;17.43;4.77;;;14.00;77.70;;;;;;5076931;28;20587;-85
2021/07/30 03:27:25;;;;;;;16.90;5.00;;;14.00;77.50;;;;;;5076858;28;20175;-85
2021/07/30 03:29:50;;;;;;;20.50;5.00;;;14.00;78.00;;;;;;5076704;28;20278;-85
2021/07/30 03:32:16;;;;;;;12.60;4.80;;;13.90;78.00;;;;;;5076717;28;20221;-85
2021/07/30 03:34:42;;;;;;;12.47;4.43;;;14.00;78.10;;;;;;5058680;28;20283;-85
2021/07/30 03:37:08;;;;;;;8.03;4.60;;;13.90;78.50;;;;;;5076904;28;20198;-85
2021/07/30 03:39:34;;;;;;;16.13;4.53;;;13.90;78.30;;;;;;5058564;28;20262;-85
2021/07/30 03:41:59;;;;;;;12.07;4.90;;;13.90;78.30;;;;;;5058650;28;20210;-85
2021/07/30 03:44:25;;;;;;;18.83;4.93;;;13.90;78.50;;;;;;5076498;28;20790;-85
2021/07/30 03:46:51;;;;;;;9.73;4.60;;;13.90;78.60;;;;;;5076564;28;20176;-85
2021/07/30 03:49:16;;;;;;;18.40;4.90;;;13.90;78.40;;;;;;5058557;28;20171;-85
2021/07/30 03:51:42;;;;;;;16.83;5.03;;;13.80;78.50;;;;;;5076311;28;20203;-85
2021/07/30 03:54:09;;;;;;;9.63;4.60;;;14.00;77.70;;;;;;5076213;28;20325;-85
2021/07/30 03:56:38;;;;;;;8.93;4.70;;;14.00;78.00;;;;;;5076265;28;20650;-85
2021/07/30 03:59:04;;;;;;;10.90;5.20;;;14.00;77.80;;;;;;5058300;28;20171;-85
2021/07/30 04:01:29;;;;;;;18.17;5.73;;;14.00;78.10;;;;;;5058222;28;20258;-85
2021/07/30 04:03:55;;;;;;;11.37;5.17;;;14.10;78.10;;;;;;5058121;28;20195;-85
2021/07/30 04:06:21;;;;;;;12.80;4.90;;;14.20;77.30;;;;;;5076096;28;20591;-85
2021/07/30 04:08:46;;;;;;;15.00;4.87;;;14.20;77.60;;;;;;5076005;28;20252;-85
2021/07/30 04:11:12;;;;;;;11.47;4.50;;;14.20;77.30;;;;;;5075838;28;20249;-85
2021/07/30 04:13:38;;;;;;;12.77;5.87;;;14.30;77.10;;;;;;5057955;28;20669;-85
2021/07/30 04:16:05;;;;;;;14.77;5.30;;;14.20;77.40;;;;;;5076196;28;20176;-85
2021/07/30 04:18:31;;;;;;;12.27;5.63;;;14.10;78.00;;;;;;5075875;28;20595;-85
2021/07/30 04:20:56;;;;;;;11.03;4.90;;;14.20;77.50;;;;;;5075360;28;20179;-85
2021/07/30 04:23:23;;;;;;;14.67;6.07;;;14.20;78.00;;;;;;5057642;28;20199;-85
2021/07/30 04:25:48;;;;;;;16.67;5.57;;;14.10;78.20;;;;;;5057852;28;20179;-85
2021/07/30 04:28:14;;;;;;;14.07;5.90;;;14.10;78.30;;;;;;5057816;28;20526;-85
2021/07/30 04:30:40;;;;;;;13.27;5.67;;;14.10;77.90;;;;;;5057661;28;20210;-85
2021/07/30 04:33:07;;;;;;;18.20;6.67;;;14.20;78.30;;;;;;5075587;28;20191;-85
2021/07/30 04:35:36;;;;;;;13.70;5.73;;;14.10;78.20;;;;;;5075566;28;20191;-85
2021/07/30 04:38:02;;;;;;;10.90;5.73;;;14.00;78.10;;;;;;5057560;28;20213;-85
2021/07/30 04:40:28;;;;;;;12.47;5.73;;;14.10;77.90;;;;;;5075453;28;20203;-85
2021/07/30 04:42:57;;;;;;;12.80;5.50;;;14.10;78.10;;;;;;5057386;28;20211;-85
2021/07/30 04:45:23;;;;;;;17.93;5.83;;;14.10;78.30;;;;;;5075421;28;20164;-85
2021/07/30 04:47:49;;;;;;;11.37;5.93;;;14.10;78.40;;;;;;5075314;28;20179;-85
2021/07/30 04:50:15;;;;;;;14.80;6.00;;;14.20;78.10;;;;;;5075232;28;20211;-85
2021/07/30 04:52:40;;;;;;;11.80;6.20;;;14.20;78.40;;;;;;5057291;28;20202;-85
2021/07/30 04:55:06;;;;;;;14.37;6.30;;;14.20;78.30;;;;;;5075316;28;20190;-85
2021/07/30 04:57:32;;;;;;;14.53;6.93;;;14.20;78.20;;;;;;5057278;28;20175;-85
2021/07/30 04:59:58;;;;;;;19.07;7.87;;;14.30;78.80;;;;;;5057226;28;20275;-85
2021/07/30 05:02:23;;;;;;;15.83;6.57;;;14.30;78.50;;;;;;5057042;28;20282;-85
2021/07/30 05:04:49;;;;;;;18.43;6.67;;;14.30;79.20;;;;;;5075004;28;20647;-85
2021/07/30 05:07:15;;;;;;;18.80;7.07;;;14.30;79.20;;;;;;5075180;28;20725;-85
2021/07/30 05:09:40;;;;;;;16.80;6.63;;;14.30;78.80;;;;;;5074882;28;20530;-85
2021/07/30 05:12:06;;;;;;;16.57;7.20;;;14.30;79.20;;;;;;5074847;28;20640;-85
2021/07/30 05:14:32;;;;;;;22.27;7.27;;;14.30;79.00;;;;;;5056909;28;20225;-85
2021/07/30 05:16:58;;;;;;;7.97;5.83;;;14.40;78.90;;;;;;5056878;28;20670;-85
2021/07/30 05:19:23;;;;;;;17.73;6.87;;;14.40;78.30;;;;;;5056752;28;20180;-85
2021/07/30 05:21:49;;;;;;;15.23;7.13;;;14.50;78.60;;;;;;5074691;28;20522;-85
2021/07/30 05:24:14;;;;;;;11.57;6.33;;;14.50;78.40;;;;;;5056575;28;20203;-85
2021/07/30 05:26:40;;;;;;;15.60;7.17;;;14.50;77.90;;;;;;5056622;28;20236;-85
2021/07/30 05:29:07;;;;;;;10.47;6.43;;;14.50;77.90;;;;;;5056567;28;20727;-85
2021/07/30 05:31:33;;;;;;;15.80;6.20;;;14.60;77.80;;;;;;5056221;28;20582;-85
2021/07/30 05:33:58;;;;;;;19.80;7.50;;;14.70;77.90;;;;;;5073561;28;20192;-85
2021/07/30 05:36:24;;;;;;;13.53;6.87;;;14.70;78.00;;;;;;5074416;28;20221;-85
2021/07/30 05:38:50;;;;;;;13.60;6.70;;;14.70;78.00;;;;;;5056340;28;20183;-85
2021/07/30 05:41:16;;;;;;;20.73;7.50;;;14.80;77.90;;;;;;5074365;28;20187;-85
2021/07/30 05:43:44;;;;;;;15.17;8.03;;;14.70;78.00;;;;;;5074011;28;20234;-85
2021/07/30 05:46:10;;;;;;;22.93;7.27;;;14.80;78.10;;;;;;5074153;28;20539;-85
2021/07/30 05:48:36;;;;;;;19.07;7.90;;;14.80;78.40;;;;;;5056256;28;20180;-85
2021/07/30 05:51:02;;;;;;;16.97;7.20;;;14.90;78.20;;;;;;5073969;28;20570;-85
2021/07/30 05:53:28;;;;;;;16.77;8.23;;;15.00;78.10;;;;;;5073894;28;20198;-85
2021/07/30 05:55:53;;;;;;;18.23;7.67;;;15.10;78.10;;;;;;5073945;28;20168;-85
2021/07/30 05:58:19;;;;;;;22.50;7.63;;;15.10;78.00;;;;;;5073938;28;20255;-85
2021/07/30 06:00:44;;;;;;;11.97;6.87;;;15.20;77.80;;;;;;5073878;28;20231;-85
2021/07/30 06:03:10;;;;;;;17.67;7.77;;;15.20;77.50;;;;;;5074056;28;20735;-85
2021/07/30 06:05:37;;;;;;;15.87;7.03;;;15.30;78.00;;;;;;5056436;28;20722;-85
2021/07/30 06:08:05;;;;;;;17.63;8.53;;;15.40;78.10;;;;;;5055808;28;20300;-85
2021/07/30 06:10:31;;;;;;;18.43;7.77;;;15.30;77.00;;;;;;5055648;28;20207;-85
2021/07/30 06:12:57;;;;;;;18.17;8.13;;;15.30;77.00;;;;;;5055786;28;20195;-85
2021/07/30 06:15:23;;;;;;;14.30;6.43;;;15.40;77.40;;;;;;5055978;28;20258;-85
2021/07/30 06:17:50;;;;;;;20.27;7.83;;;15.40;77.10;;;;;;5073832;28;20171;-86
2021/07/30 06:20:16;;;;;;;14.90;7.10;;;15.40;77.00;;;;;;5073680;28;20186;-86
2021/07/30 06:22:42;;;;;;;22.77;7.67;;;15.40;77.00;;;;;;5073533;28;20195;-85
2021/07/30 06:25:08;;;;;;;21.73;8.00;;;15.60;77.70;;;;;;5073630;28;20179;-85
2021/07/30 06:27:34;;;;;;;22.83;8.37;;;15.60;77.60;;;;;;5073472;28;20229;-85
2021/07/30 06:30:04;;;;;;;20.03;8.53;;;15.70;77.30;;;;;;5055577;28;20579;-85
2021/07/30 06:32:30;;;;;;;23.83;9.67;;;15.80;77.60;;;;;;5073742;28;20171;-85
2021/07/30 06:34:55;;;;;;;15.80;7.83;;;15.90;77.50;;;;;;5073669;28;20570;-85
2021/07/30 06:37:21;;;;;;;21.43;8.80;;;15.90;77.20;;;;;;5055426;28;20179;-85
2021/07/30 06:39:47;;;;;;;31.03;9.50;;;16.00;77.60;;;;;;5073605;28;20541;-85
2021/07/30 06:42:13;;;;;;;19.70;8.00;;;16.00;76.80;;;;;;5073618;28;20221;-85
2021/07/30 06:44:38;;;;;;;18.33;8.47;;;16.20;77.50;;;;;;5054856;28;20254;-85
2021/07/30 06:47:04;;;;;;;13.93;8.00;;;16.20;77.00;;;;;;5073223;28;20171;-86
2021/07/30 06:49:30;;;;;;;20.83;8.50;;;16.20;76.70;;;;;;5073187;28;20175;-85
2021/07/30 06:51:56;;;;;;;18.10;8.17;;;16.30;76.80;;;;;;5073113;28;20667;-85
2021/07/30 06:54:23;;;;;;;16.60;8.25;;;16.30;76.50;;;;;;5055374;28;20217;-85
2021/07/30 06:56:49;;;;;;;17.03;7.63;;;16.40;76.70;;;;;;5055273;28;20179;-85
2021/07/30 06:59:15;;;;;;;24.30;9.20;;;16.50;76.80;;;;;;5073057;28;20197;-85
2021/07/30 07:01:40;;;;;;;19.63;7.85;;;16.60;76.90;;;;;;5055150;28;20559;-85
2021/07/30 07:04:06;;;;;;;21.52;7.85;;;16.60;76.90;;;;;;5073035;28;20199;-86
2021/07/30 07:06:32;;;;;;;21.60;8.35;;;16.60;76.40;;;;;;5055126;28;20203;-85
2021/07/30 07:08:57;;;;;;;19.50;7.95;;;16.70;76.60;;;;;;5073099;28;20631;-85
2021/07/30 07:11:23;;;;;;;22.25;8.77;;;16.70;76.20;;;;;;5073091;28;20198;-85
2021/07/30 07:13:48;;;;;;;20.37;8.67;;;16.60;75.90;;;;;;5054991;28;20231;-85
2021/07/30 07:16:20;;;;;;;18.95;8.20;;;16.70;76.20;;;;;;5072873;28;20548;-85
2021/07/30 07:18:46;;;;;;;20.48;8.43;;;16.80;76.20;;;;;;5072888;28;20174;-86
2021/07/30 07:21:13;;;;;;;17.55;7.45;;;17.00;76.90;;;;;;5072918;28;20175;-85
2021/07/30 07:23:40;;;;;;;22.80;7.93;;;17.10;76.20;;;;;;5072959;28;20213;-85
2021/07/30 07:26:05;;;;;;;20.33;9.15;;;17.10;76.20;;;;;;5055034;28;20175;-85
2021/07/30 07:28:31;;;;;;;18.73;7.82;;;17.20;75.50;;;;;;5054898;28;20176;-85
2021/07/30 07:30:57;;;;;;;27.52;8.07;;;17.20;75.30;;;;;;5072765;28;20191;-85
2021/07/30 07:33:23;;;;;;;17.08;8.95;;;17.30;74.50;;;;;;5054778;28;20196;-85
2021/07/30 07:35:48;;;;;;;24.45;8.73;;;17.30;74.70;;;;;;5072868;28;20167;-85
2021/07/30 07:38:14;;;;;;;14.32;7.00;;;17.40;75.00;;;;;;5054732;28;20172;-85
2021/07/30 07:40:40;;;;;;;14.50;7.55;;;17.50;74.30;;;;;;5054788;28;20305;-86
2021/07/30 07:43:05;;;;;;;19.83;8.13;;;17.50;74.30;;;;;;5072645;28;20278;-85
2021/07/30 07:45:31;;;;;;;20.38;8.27;;;17.50;73.70;;;;;;5054754;28;20643;-85
2021/07/30 07:47:57;;;;;;;19.02;7.57;;;17.50;73.50;;;;;;5054761;28;20179;-85
2021/07/30 07:50:23;;;;;;;17.23;7.90;;;17.60;74.80;;;;;;5054745;28;20579;-85
2021/07/30 07:52:49;;;;;;;18.95;7.95;;;17.80;74.60;;;;;;5054858;28;20188;-85
2021/07/30 07:55:14;;;;;;;16.27;7.68;;;17.90;73.60;;;;;;5072560;28;20171;-85
2021/07/30 07:57:41;;;;;;;19.88;7.60;;;17.90;73.70;;;;;;5076228;28;20171;-85
2021/07/30 08:00:10;;;;;;;17.25;7.22;;;18.00;73.30;;;;;;5076269;28;20179;-85
2021/07/30 08:02:36;;;;;;;15.07;7.97;;;18.00;73.00;;;;;;5058110;28;20175;-85
2021/07/30 08:05:01;;;;;;;18.02;7.40;;;18.20;74.40;;;;;;5058174;28;20182;-85
2021/07/30 08:07:27;;;;;;;15.07;7.53;;;18.30;72.50;;;;;;5058177;28;20214;-84
2021/07/30 08:09:53;;;;;;;13.30;6.80;;;18.40;72.70;;;;;;5075914;28;20168;-84
2021/07/30 08:12:19;;;;;;;20.30;7.78;;;18.50;72.90;;;;;;5058587;28;20580;-85
2021/07/30 08:14:46;;;;;;;14.13;6.63;;;18.50;72.30;;;;;;5075938;28;20177;-85
2021/07/30 08:17:11;;;;;;;16.85;7.05;;;18.70;72.20;;;;;;5058173;28;20175;-85
2021/07/30 08:19:37;;;;;;;17.60;6.70;;;18.90;71.60;;;;;;5076051;28;20200;-85
2021/07/30 08:22:05;;;;;;;10.10;6.28;;;18.80;71.80;;;;;;5075823;28;20186;-84
2021/07/30 08:24:30;;;;;;;14.98;6.97;;;18.80;71.90;;;;;;5057824;28;20199;-84
2021/07/30 08:26:56;;;;;;;12.45;6.30;;;18.90;71.60;;;;;;5075773;28;20171;-85
2021/07/30 08:29:22;;;;;;;14.65;6.78;;;19.20;71.00;;;;;;5057796;28;20175;-85
2021/07/30 08:31:48;;;;;;;12.25;6.13;;;19.20;70.80;;;;;;5075921;28;20404;-85
2021/07/30 08:34:16;;;;;;;17.30;7.07;;;19.20;70.10;;;;;;5057646;28;20674;-84
2021/07/30 08:36:43;;;;;;;12.25;6.15;;;19.30;70.40;;;;;;5075554;28;20174;-84
2021/07/30 08:39:08;;;;;;;15.40;6.28;;;19.20;68.80;;;;;;5075725;28;20175;-84
2021/07/30 08:41:35;;;;;;;12.82;6.20;;;19.30;69.90;;;;;;5075540;28;20546;-84
2021/07/30 08:44:02;;;;;;;16.67;5.05;;;19.50;68.20;;;;;;5057310;28;20215;-85
2021/07/30 08:46:30;;;;;;;15.43;6.65;;;19.60;67.70;;;;;;5075686;28;20171;-85
2021/07/30 08:48:56;;;;;;;12.43;6.28;;;19.60;68.50;;;;;;5057368;28;20179;-84
2021/07/30 08:51:24;;;;;;;11.65;5.75;;;19.70;67.50;;;;;;5075234;28;20736;-84
2021/07/30 08:53:50;;;;;;;13.27;5.90;;;19.60;66.80;;;;;;5057268;28;20686;-84
2021/07/30 08:56:16;;;;;;;12.10;6.10;;;19.80;69.10;;;;;;5075251;28;20199;-85
2021/07/30 08:58:45;;;;;;;12.18;5.30;;;20.00;67.90;;;;;;5075395;28;20163;-85
2021/07/30 09:01:12;;;;;;;12.25;5.10;;;20.00;65.60;;;;;;5075070;28;20176;-85
2021/07/30 09:03:39;;;;;;;14.65;6.28;;;19.90;65.10;;;;;;5057116;28;20199;-85
2021/07/30 09:06:22;;;;;;;16.42;6.43;;;20.10;65.40;;;;;;5057003;28;20185;-85
2021/07/30 09:08:54;;;;;;;15.35;5.63;;;20.20;65.70;;;;;;5075198;28;20176;-87
2021/07/30 09:11:34;;;;;;;10.43;5.25;;;20.30;65.20;;;;;;5056944;28;20203;-87
2021/07/30 09:14:02;;;;;;;15.27;5.55;;;20.30;65.40;;;;;;5074901;28;20183;-88
2021/07/30 09:16:28;;;;;;;11.80;4.85;;;20.30;66.20;;;;;;5057023;28;20191;-88
2021/07/30 09:18:54;;;;;;;8.43;4.68;;;20.40;64.30;;;;;;5056866;28;20178;-87
2021/07/30 09:21:30;;;;;;;15.10;5.78;;;20.50;64.20;;;;;;5074855;28;20674;-87
2021/07/30 09:24:07;;;;;;;13.63;5.60;;;20.60;64.60;;;;;;5074998;28;20201;-87
2021/07/30 09:26:36;;;;;;;16.27;5.22;;;20.60;63.60;;;;;;5074744;28;20158;-87
2021/07/30 09:29:09;;;;;;;17.27;5.07;;;20.60;63.00;;;;;;5074619;28;20258;-87
2021/07/30 09:31:44;;;;;;;11.18;4.40;;;20.70;62.60;;;;;;5074488;28;20666;-87
2021/07/30 09:34:31;;;;;;;11.88;4.18;;;20.70;60.40;;;;;;5056645;28;20222;-87
2021/07/30 09:37:02;;;;;;;7.20;4.13;;;20.70;58.80;;;;;;5074456;28;20685;-87
2021/07/30 09:39:34;;;;;;;6.63;3.53;;;20.80;58.90;;;;;;5056366;28;20175;-87
2021/07/30 09:42:11;;;;;;;6.93;3.53;;;21.00;60.20;;;;;;5074530;28;20206;-87
2021/07/30 09:44:53;;;;;;;9.77;3.40;;;20.60;56.50;;;;;;5074089;28;20214;-87
2021/07/30 09:47:24;;;;;;;6.28;3.20;;;20.50;57.10;;;;;;5056316;28;20593;-87
2021/07/30 09:49:54;;;;;;;5.88;3.00;;;20.60;57.10;;;;;;5074064;28;20643;-87
2021/07/30 09:52:27;;;;;;;6.97;2.90;;;20.60;57.70;;;;;;5074331;28;20159;-87
2021/07/30 09:54:56;;;;;;;10.98;3.00;;;20.70;57.20;;;;;;5056115;28;20167;-86
2021/07/30 09:57:25;;;;;;;6.15;3.03;;;20.80;56.80;;;;;;5073956;28;20159;-87
2021/07/30 09:59:51;;;;;;;6.32;2.78;;;20.90;55.80;;;;;;5056021;28;20176;-87
2021/07/30 10:02:21;;;;;;;5.38;3.05;;;21.00;55.50;;;;;;5055965;28;20168;-87
2021/07/30 10:04:51;;;;;;;7.97;3.95;;;20.90;56.10;;;;;;5074011;28;20519;-87
2021/07/30 10:07:19;;;;;;;8.88;3.80;;;21.20;56.10;;;;;;5055915;28;20171;-87
2021/07/30 10:12:49;;;;;;;8.63;3.67;;;21.30;54.60;;;;;;5070761;28;20207;-85
2021/07/30 10:15:15;;;;;;;4.57;2.80;;;21.40;54.70;;;;;;5055842;28;20175;-85
2021/07/30 10:17:48;;;;;;;8.45;2.83;;;21.50;54.30;;;;;;5055721;28;20175;-85
2021/07/30 10:20:15;;;;;;;5.50;2.83;;;21.50;51.70;;;;;;5073146;28;20191;-85
2021/07/30 10:23:11;;;;;;;9.10;3.40;;;21.20;52.00;;;;;;5073748;28;20589;-85
2021/07/30 10:25:39;;;;;;;7.40;2.85;;;21.30;55.30;;;;;;5055749;28;20163;-85
2021/07/30 10:28:07;;;;;;;9.30;3.00;;;21.70;54.00;;;;;;5073498;28;20187;-85
2021/07/30 10:30:55;;;;;;;6.18;3.13;;;21.50;53.60;;;;;;5055440;28;20294;-85
2021/07/30 10:33:30;;;;;;;11.35;3.05;;;21.50;55.10;;;;;;5055442;28;20199;-85
2021/07/30 10:35:57;;;;;;;9.05;2.88;;;21.80;54.30;;;;;;5055503;28;20225;-85
2021/07/30 10:38:24;;;;;;;6.93;2.88;;;21.90;54.60;;;;;;5073588;28;20175;-85
2021/07/30 10:40:55;;;;;;;4.68;2.55;;;22.00;54.10;;;;;;5073355;28;20647;-85
2021/07/30 10:43:22;;;;;;;4.55;2.10;;;22.20;54.10;;;;;;5055875;28;20221;-83
2021/07/30 10:46:08;;;;;;;5.82;2.35;;;22.60;51.00;;;;;;5055435;28;20175;-83
2021/07/30 10:48:35;;;;;;;6.60;2.50;;;22.30;50.90;;;;;;5055302;28;20197;-83
2021/07/30 10:51:02;;;;;;;10.70;3.20;;;22.20;52.50;;;;;;5055174;28;20199;-83
2021/07/30 10:53:32;;;;;;;4.82;2.70;;;22.40;51.20;;;;;;5055225;28;20195;-82
2021/07/30 10:55:59;;;;;;;11.48;2.33;;;22.40;50.00;;;;;;5055286;28;20167;-82
2021/07/30 10:58:40;;;;;;;4.38;2.53;;;22.20;51.20;;;;;;5073184;28;20167;-83
2021/07/30 11:01:10;;;;;;;7.32;3.30;;;22.20;53.00;;;;;;5073286;28;20198;-82
2021/07/30 11:03:51;;;;;;;6.93;2.80;;;22.30;52.90;;;;;;5055193;28;20198;-82
2021/07/30 11:06:26;;;;;;;6.22;2.83;;;22.60;51.60;;;;;;5073083;28;20686;-86
2021/07/30 11:11:45;;;;;;;5.70;2.90;;;22.80;50.70;;;;;;5072963;28;20564;-86
2021/07/30 11:14:19;;;;;;;5.60;2.65;;;22.70;51.40;;;;;;5072906;28;20697;-86
2021/07/30 11:16:53;;;;;;;6.78;3.05;;;22.90;52.40;;;;;;5072994;28;20163;-86
2021/07/30 11:19:25;;;;;;;7.45;2.88;;;22.80;51.60;;;;;;5072877;28;20193;-86
2021/07/30 11:21:51;;;;;;;4.38;2.35;;;22.50;49.70;;;;;;5055343;28;20170;-88
2021/07/30 11:24:17;;;;;;;9.18;2.30;;;22.60;50.80;;;;;;5072958;28;20195;-88
2021/07/30 11:26:44;;;;;;;3.15;2.10;;;22.70;49.60;;;;;;5073029;28;20172;-88
2021/07/30 11:29:14;;;;;;;10.05;3.00;;;22.60;51.10;;;;;;5073001;28;20544;-88
2021/07/30 11:31:54;;;;;;;6.35;2.47;;;22.50;51.00;;;;;;5059664;28;20313;-88
2021/07/30 11:34:22;;;;;;;6.70;2.58;;;22.20;52.60;;;;;;5058956;28;20215;-88
2021/07/30 11:36:51;;;;;;;6.88;2.63;;;21.90;51.70;;;;;;5058925;28;20172;-88
2021/07/30 11:39:17;;;;;;;9.38;3.30;;;22.30;53.20;;;;;;5059400;28;20220;-88
2021/07/30 11:41:48;;;;;;;6.32;2.55;;;22.20;53.00;;;;;;5077019;28;20171;-88
2021/07/30 11:44:14;;;;;;;4.00;2.42;;;22.20;51.80;;;;;;5059066;28;20214;-88
2021/07/30 11:46:40;;;;;;;6.63;2.67;;;22.00;49.80;;;;;;5077169;28;20189;-88
2021/07/30 11:49:07;;;;;;;6.43;2.78;;;22.20;51.70;;;;;;5076544;28;20305;-88
2021/07/30 11:51:39;;;;;;;10.10;3.20;;;22.60;52.00;;;;;;5076522;28;20191;-88
2021/07/30 11:54:04;;;;;;;7.22;2.45;;;22.80;53.20;;;;;;5059311;28;20191;-88
2021/07/30 11:56:42;;;;;;;8.75;3.03;;;22.90;50.60;;;;;;5076710;28;20167;-87
2021/07/30 11:59:08;;;;;;;6.10;3.22;;;23.10;50.70;;;;;;5058997;28;20163;-88
2021/07/30 12:01:33;;;;;;;5.05;2.65;;;22.60;46.80;;;;;;5076346;28;20253;-88
2021/07/30 12:04:17;;;;;;;9.77;2.50;;;22.40;49.30;;;;;;5076290;28;20197;-86
2021/07/30 12:06:46;;;;;;;10.70;3.33;;;22.20;51.60;;;;;;5059287;28;20178;-86
2021/07/30 12:09:14;;;;;;;6.00;2.95;;;22.80;50.00;;;;;;5058332;28;20175;-86
2021/07/30 12:11:52;;;;;;;5.82;2.60;;;22.80;48.30;;;;;;5058239;28;20195;-86
2021/07/30 12:14:19;;;;;;;7.18;3.08;;;23.20;49.30;;;;;;5076371;28;20183;-86
2021/07/30 12:16:45;;;;;;;6.43;2.83;;;23.30;48.50;;;;;;5076055;28;20175;-86
2021/07/30 12:19:11;;;;;;;54.75;5.95;;;23.40;49.10;;;;;;5058102;28;20184;-86
2021/07/30 12:22:00;;;;;;;77.75;6.60;;;23.40;49.00;;;;;;5058385;28;20211;-86
2021/07/30 12:24:26;;;;;;;5.55;2.40;;;23.40;48.20;;;;;;5076166;28;20211;-87
2021/07/30 12:26:52;;;;;;;7.32;2.95;;;23.30;49.30;;;;;;5075839;28;20686;-86
2021/07/30 12:29:36;;;;;;;11.32;3.17;;;23.60;48.50;;;;;;5075695;28;20179;-85
2021/07/30 12:32:12;;;;;;;5.93;2.80;;;23.40;46.90;;;;;;5057637;28;20234;-86
2021/07/30 12:34:38;;;;;;;5.68;2.35;;;23.70;47.80;;;;;;5075601;28;20541;-85
2021/07/30 12:37:10;;;;;;;6.72;2.83;;;23.50;47.40;;;;;;5075561;28;20221;-86
2021/07/30 12:39:46;;;;;;;6.22;2.25;;;23.70;49.00;;;;;;5057657;28;20523;-85
2021/07/30 12:42:24;;;;;;;8.15;2.50;;;24.00;45.30;;;;;;5056940;28;20171;-85
2021/07/30 12:45:04;;;;;;;8.50;2.60;;;23.90;45.10;;;;;;5057557;28;20198;-86
2021/07/30 12:47:30;;;;;;;6.20;2.50;;;23.60;44.70;;;;;;5075753;28;20156;-86
2021/07/30 12:49:56;;;;;;;3.72;2.25;;;24.00;45.40;;;;;;5057331;28;20199;-86